Главная страница
METAR-TAF:

METAR-TAF

Аэропорты :

Витебск, Белоруссия

широта: 55-10N, долгота: 030-13E, высота над уровнем моря: 176 м

Текущие метеонаблюдения

Эта сводка был подготовлена 26 минут назад, в 10:00 UTC
Ветер 10 Узел от западный-юго-западный с порывами до 17 Узел
Температура 8°C
Влажность 42%
Давление 1023 hPa
Видимость 10 км и более
Нет облачности ниже 1500 м, и нет кучево-дождевой облачности

METAR: UMII 231000Z 25005G09MPS CAVOK 08/M04 Q1023 R23/710155 NOSIG

Время: 13:26 (10:26 UTC)

Прогноз

Эта сводка был подготовлена 2 часа и 21 минут назад, в 08:05 UTC
Прогноз действительный с 23-го 09 UTC до 23-го 18 UTC
Ветер 10 Узел от западный-юго-западный
Видимость 10 км и более
Отдельные облака на высоте 1500 фута

TAF: UMII 230805Z 2309/2318 25005MPS 9999 SCT015

Метеонаблюдения и прогнозы для более 4000 аэропортов (сводки METAR и TAF).

Имеющиеся станции представлены на карте желтыми и красными точками.

Чтобы увидеть название станции, наведите на нее мышь.

Затем щелкните, чтобы увидеть метеонаблюдения и метеопрогнозы.

Управление картой: чтобы увеличить масштаб, щелкните зеленые кнопки с черным крестиком; чтобы уменьшить масштаб, щелкните зеленую кнопку с тире; для просмотра соседних карт щелкайте зеленые стрелки.


METAR-TAF: